createdAt,value
2022-09-01T00:01:42.295Z,14.09
2022-09-01T00:02:42.355Z,13.98
2022-09-01T00:03:42.305Z,14.03
2022-09-01T00:04:42.331Z,13.79
2022-09-01T00:05:42.262Z,13.83
2022-09-01T00:06:42.270Z,13.75
2022-09-01T00:07:42.268Z,13.64
2022-09-01T00:08:42.253Z,13.54
2022-09-01T00:09:42.254Z,13.60
2022-09-01T00:10:42.247Z,13.49
2022-09-01T00:11:42.235Z,13.54
2022-09-01T00:12:42.245Z,13.58
2022-09-01T00:13:42.219Z,13.54
2022-09-01T00:14:42.197Z,13.45
2022-09-01T00:15:42.222Z,13.49
2022-09-01T00:16:42.181Z,13.58
2022-09-01T00:17:42.225Z,13.53
2022-09-01T00:18:42.162Z,13.79
2022-09-01T00:19:42.168Z,13.72
2022-09-01T00:20:42.147Z,13.83
2022-09-01T00:21:42.146Z,13.72
2022-09-01T00:22:42.182Z,13.49
2022-09-01T00:23:42.126Z,13.40
2022-09-01T00:24:42.128Z,13.36
2022-09-01T00:25:42.100Z,13.45
2022-09-01T00:26:42.099Z,13.38
2022-09-01T00:27:42.090Z,13.49
2022-09-01T00:28:42.136Z,13.57
2022-09-01T00:29:44.075Z,13.60
2022-09-01T00:30:42.074Z,13.63
2022-09-01T00:31:42.053Z,13.72
2022-09-01T00:32:42.050Z,13.88
2022-09-01T00:33:42.057Z,13.94
2022-09-01T00:34:42.044Z,13.91
2022-09-01T00:35:42.113Z,13.82
2022-09-01T00:36:42.013Z,13.79
2022-09-01T00:37:41.997Z,13.86
2022-09-01T00:38:41.990Z,13.86
2022-09-01T00:39:42.007Z,13.88
2022-09-01T00:40:42.038Z,13.80
2022-09-01T00:41:41.971Z,13.82
2022-09-01T00:42:41.970Z,13.85
2022-09-01T00:43:41.950Z,13.83
2022-09-01T00:44:41.942Z,13.88
2022-09-01T00:45:41.954Z,13.71
2022-09-01T00:46:49.570Z,13.64
2022-09-01T00:47:42.955Z,13.61
2022-09-01T00:48:42.025Z,13.57
2022-09-01T00:49:41.932Z,13.53
2022-09-01T00:50:41.890Z,13.40
2022-09-01T00:51:41.887Z,13.43
2022-09-01T00:52:41.890Z,13.46
2022-09-01T00:53:41.885Z,13.36
2022-09-01T00:54:41.880Z,13.29
2022-09-01T00:55:41.872Z,13.24
2022-09-01T00:56:41.870Z,13.26
2022-09-01T00:57:41.834Z,13.24
2022-09-01T00:58:41.830Z,13.19
2022-09-01T00:59:41.825Z,13.21
2022-09-01T01:00:42.003Z,13.11
2022-09-01T01:01:41.879Z,13.08
2022-09-01T01:02:41.857Z,12.99
2022-09-01T01:03:41.796Z,12.93
2022-09-01T01:04:41.790Z,12.98
2022-09-01T01:05:41.786Z,12.86
2022-09-01T01:06:41.772Z,12.77
2022-09-01T01:07:41.800Z,12.72
2022-09-01T01:08:41.773Z,12.72
2022-09-01T01:09:41.751Z,12.66
2022-09-01T01:10:41.735Z,12.72
2022-09-01T01:11:41.728Z,12.69
2022-09-01T01:12:41.712Z,12.62
2022-09-01T01:13:41.715Z,12.63
2022-09-01T01:14:41.797Z,12.71
2022-09-01T01:15:41.692Z,12.69
2022-09-01T01:16:41.734Z,12.65
2022-09-01T01:17:41.671Z,12.55
2022-09-01T01:18:41.676Z,12.55
2022-09-01T01:19:41.697Z,12.58
2022-09-01T01:20:41.656Z,12.59
2022-09-01T01:21:41.649Z,12.51
2022-09-01T01:22:41.647Z,12.48
2022-09-01T01:23:41.648Z,12.44
2022-09-01T01:24:41.630Z,12.36
2022-09-01T01:25:41.647Z,12.44
2022-09-01T01:26:41.601Z,12.38
2022-09-01T01:27:42.912Z,12.46
2022-09-01T01:28:41.588Z,12.40
2022-09-01T01:29:41.582Z,12.41
2022-09-01T01:30:41.671Z,12.41
2022-09-01T01:31:41.567Z,12.32
2022-09-01T01:32:41.559Z,12.33
2022-09-01T01:33:42.941Z,12.28
2022-09-01T01:34:41.583Z,12.32
2022-09-01T01:35:41.537Z,12.33
2022-09-01T01:36:41.579Z,12.36
2022-09-01T01:37:41.589Z,12.38
2022-09-01T01:38:41.510Z,12.33
2022-09-01T01:39:41.505Z,12.28
2022-09-01T01:40:41.623Z,12.05
2022-09-01T01:41:41.487Z,12.17
2022-09-01T01:42:41.471Z,12.10
2022-09-01T01:43:41.497Z,12.05
2022-09-01T01:44:41.461Z,12.07
2022-09-01T01:45:41.491Z,12.05
2022-09-01T01:46:41.458Z,12.15
2022-09-01T01:47:41.465Z,12.08
2022-09-01T01:48:41.456Z,12.15
2022-09-01T01:49:41.454Z,12.21
2022-09-01T01:50:41.413Z,12.35
2022-09-01T01:51:41.413Z,12.35
2022-09-01T01:52:41.400Z,12.33
2022-09-01T01:53:41.426Z,12.36
2022-09-01T01:54:41.390Z,12.38
2022-09-01T01:55:41.378Z,12.48
2022-09-01T01:56:41.379Z,12.43
2022-09-01T01:57:41.362Z,12.44
2022-09-01T01:58:41.364Z,12.43
2022-09-01T01:59:41.391Z,12.40
2022-09-01T02:00:41.338Z,12.41
2022-09-01T02:01:41.390Z,12.36
2022-09-01T02:02:41.346Z,12.36
2022-09-01T02:03:41.318Z,12.38
2022-09-01T02:04:41.303Z,12.38
2022-09-01T02:05:41.334Z,12.41
2022-09-01T02:06:41.283Z,12.28
2022-09-01T02:07:41.270Z,12.18
2022-09-01T02:08:41.268Z,12.17
2022-09-01T02:09:41.291Z,12.22
2022-09-01T02:10:41.250Z,12.10
2022-09-01T02:11:41.265Z,12.07
2022-09-01T02:12:41.243Z,12.08
2022-09-01T02:13:41.231Z,12.08
2022-09-01T02:14:41.235Z,12.11
2022-09-01T02:15:41.240Z,12.25
2022-09-01T02:16:41.223Z,12.17
2022-09-01T02:17:41.206Z,12.25
2022-09-01T02:18:41.185Z,12.23
2022-09-01T02:19:41.184Z,12.23
2022-09-01T02:20:41.207Z,12.04
2022-09-01T02:21:41.174Z,12.03
2022-09-01T02:22:41.154Z,11.93
2022-09-01T02:23:41.151Z,11.88
2022-09-01T02:24:41.133Z,11.80
2022-09-01T02:25:58.968Z,11.79
2022-09-01T02:26:42.143Z,11.70
2022-09-01T02:27:41.135Z,11.74
2022-09-01T02:28:41.110Z,11.79
2022-09-01T02:29:43.643Z,11.87
2022-09-01T02:30:41.139Z,11.82
2022-09-01T02:31:41.093Z,11.88
2022-09-01T02:32:41.113Z,11.95
2022-09-01T02:33:41.063Z,11.76
2022-09-01T02:34:41.060Z,11.69
2022-09-01T02:35:41.072Z,11.71
2022-09-01T02:36:41.059Z,11.55
2022-09-01T02:37:41.063Z,11.59
2022-09-01T02:38:41.022Z,11.43
2022-09-01T02:39:41.026Z,11.34
2022-09-01T02:40:41.044Z,11.41
2022-09-01T02:41:41.007Z,11.36
2022-09-01T02:42:40.997Z,11.34
2022-09-01T02:43:41.001Z,11.28
2022-09-01T02:44:41.543Z,11.31
2022-09-01T02:45:41.015Z,11.38
2022-09-01T02:46:40.960Z,11.36
2022-09-01T02:47:40.960Z,11.34
2022-09-01T02:48:40.970Z,11.30
2022-09-01T02:49:40.959Z,11.22
2022-09-01T02:50:40.942Z,11.22
2022-09-01T02:51:40.954Z,11.27
2022-09-01T02:52:40.912Z,11.30
2022-09-01T02:53:40.908Z,11.20
2022-09-01T02:54:40.928Z,11.15
2022-09-01T02:55:40.990Z,11.12
2022-09-01T02:56:40.907Z,11.12
2022-09-01T02:57:40.891Z,11.03
2022-09-01T02:58:40.881Z,11.04
2022-09-01T02:59:43.795Z,10.98
2022-09-01T03:00:40.861Z,11.00
2022-09-01T03:01:40.913Z,10.90
2022-09-01T03:02:40.837Z,10.90
2022-09-01T03:03:40.848Z,10.90
2022-09-01T03:04:40.889Z,10.85
2022-09-01T03:05:40.817Z,10.90
2022-09-01T03:06:40.827Z,10.79
2022-09-01T03:07:40.816Z,10.79
2022-09-01T03:08:40.814Z,10.93
2022-09-01T03:09:40.792Z,10.94
2022-09-01T03:10:40.777Z,10.94
2022-09-01T03:11:40.761Z,10.94
2022-09-01T03:12:40.767Z,10.97
2022-09-01T03:13:40.827Z,10.97
2022-09-01T03:14:40.744Z,11.01
2022-09-01T03:15:40.743Z,10.95
2022-09-01T03:16:40.788Z,11.01
2022-09-01T03:17:40.718Z,11.01
2022-09-01T03:18:40.704Z,11.03
2022-09-01T03:19:40.721Z,11.08
2022-09-01T03:20:40.678Z,11.09
2022-09-01T03:21:40.678Z,11.13
2022-09-01T03:22:40.674Z,11.11
2022-09-01T03:23:40.655Z,11.18
2022-09-01T03:24:40.673Z,11.18
2022-09-01T03:25:40.653Z,11.18
2022-09-01T03:26:40.639Z,11.18
2022-09-01T03:27:40.635Z,11.20
2022-09-01T03:28:40.658Z,11.09
2022-09-01T03:29:40.669Z,11.05
2022-09-01T03:30:40.612Z,11.15
2022-09-01T03:31:40.621Z,11.09
2022-09-01T03:32:40.607Z,11.13
2022-09-01T03:33:40.579Z,11.20
2022-09-01T03:34:40.567Z,11.16
2022-09-01T03:35:40.565Z,11.15
2022-09-01T03:36:40.573Z,11.12
2022-09-01T03:37:40.542Z,11.22
2022-09-01T03:38:40.526Z,11.11
2022-09-01T03:39:40.524Z,11.09
2022-09-01T03:40:40.576Z,11.04
2022-09-01T03:41:40.506Z,11.05
2022-09-01T03:42:40.523Z,11.04
2022-09-01T03:43:46.841Z,11.08
2022-09-01T03:44:41.477Z,11.03
2022-09-01T03:45:40.579Z,11.01
2022-09-01T03:46:40.466Z,11.01
2022-09-01T03:47:40.488Z,10.98
2022-09-01T03:48:40.449Z,11.00
2022-09-01T03:49:40.439Z,11.00
2022-09-01T03:50:40.441Z,10.98
2022-09-01T03:51:40.423Z,10.98
2022-09-01T03:52:40.418Z,10.98
2022-09-01T03:53:40.457Z,10.87
2022-09-01T03:54:40.398Z,10.80
2022-09-01T03:55:40.391Z,10.70
2022-09-01T03:56:40.392Z,10.72
2022-09-01T03:57:40.388Z,10.65
2022-09-01T03:58:40.359Z,10.68
2022-09-01T03:59:40.381Z,10.67
2022-09-01T04:00:40.361Z,10.60
2022-09-01T04:01:40.419Z,10.54
2022-09-01T04:02:40.375Z,10.55
2022-09-01T04:03:40.337Z,10.61
2022-09-01T04:04:40.347Z,10.52
2022-09-01T04:05:40.309Z,10.68
2022-09-01T04:06:40.307Z,10.61
2022-09-01T04:07:40.288Z,10.64
2022-09-01T04:08:40.290Z,10.72
2022-09-01T04:09:40.274Z,10.68
2022-09-01T04:10:40.309Z,10.73
2022-09-01T04:11:45.041Z,10.70
2022-09-01T04:12:41.239Z,10.62
2022-09-01T04:13:40.237Z,10.68
2022-09-01T04:14:40.224Z,10.60
2022-09-01T04:15:40.214Z,10.72
2022-09-01T04:16:40.272Z,10.67
2022-09-01T04:17:40.199Z,10.64
2022-09-01T04:18:40.313Z,10.54
2022-09-01T04:19:40.190Z,10.61
2022-09-01T04:20:40.254Z,10.62
2022-09-01T04:21:40.183Z,10.54
2022-09-01T04:22:40.193Z,10.58
2022-09-01T04:23:40.157Z,10.49
2022-09-01T04:24:44.461Z,10.43
2022-09-01T04:25:40.143Z,10.38
2022-09-01T04:26:40.128Z,10.39
2022-09-01T04:27:40.156Z,10.34
2022-09-01T04:28:40.105Z,10.35
2022-09-01T04:29:40.099Z,10.28
2022-09-01T04:30:40.135Z,10.36
2022-09-01T04:31:40.135Z,10.42
2022-09-01T04:32:40.076Z,10.41
2022-09-01T04:33:40.219Z,10.38
2022-09-01T04:34:40.141Z,10.42
2022-09-01T04:35:40.045Z,10.41
2022-09-01T04:36:40.044Z,10.45
2022-09-01T04:37:40.132Z,10.52
2022-09-01T04:38:40.033Z,10.52
2022-09-01T04:39:40.028Z,10.43
2022-09-01T04:40:40.060Z,10.46
2022-09-01T04:41:40.011Z,10.39
2022-09-01T04:42:40.017Z,10.48
2022-09-01T04:43:40.020Z,10.60
2022-09-01T04:44:39.982Z,10.65
2022-09-01T04:45:40.016Z,10.54
2022-09-01T04:46:39.955Z,10.79
2022-09-01T04:47:39.948Z,10.68
2022-09-01T04:48:39.946Z,10.79
2022-09-01T04:49:39.958Z,10.79
2022-09-01T04:50:39.924Z,10.90
2022-09-01T04:51:39.915Z,10.78
2022-09-01T04:52:39.915Z,10.86
2022-09-01T04:53:39.919Z,10.93
2022-09-01T04:54:39.923Z,10.94
2022-09-01T04:55:39.922Z,11.11
2022-09-01T04:56:39.876Z,11.04
2022-09-01T04:57:39.860Z,11.09
2022-09-01T04:58:39.883Z,11.05
2022-09-01T04:59:39.878Z,10.98
2022-09-01T05:00:39.867Z,11.11
2022-09-01T05:01:39.919Z,11.16
2022-09-01T05:02:39.819Z,11.11
2022-09-01T05:03:39.813Z,11.18
2022-09-01T05:04:39.807Z,11.13
2022-09-01T05:05:39.789Z,11.08
2022-09-01T05:06:39.817Z,11.08
2022-09-01T05:07:39.770Z,11.18
2022-09-01T05:08:39.771Z,11.16
2022-09-01T05:09:39.768Z,11.09
2022-09-01T05:10:39.758Z,11.16
2022-09-01T05:11:39.753Z,11.19
2022-09-01T05:12:39.765Z,11.22
2022-09-01T05:13:39.802Z,11.19
2022-09-01T05:14:39.748Z,11.20
2022-09-01T05:15:39.727Z,11.22
2022-09-01T05:16:39.742Z,11.20
2022-09-01T05:17:39.722Z,11.23
2022-09-01T05:18:39.706Z,11.20
2022-09-01T05:19:39.694Z,11.28
2022-09-01T05:20:39.675Z,11.30
2022-09-01T05:21:39.658Z,11.37
2022-09-01T05:22:39.665Z,11.28
2022-09-01T05:23:39.645Z,11.34
2022-09-01T05:24:42.080Z,11.38
2022-09-01T05:25:39.645Z,11.54
2022-09-01T05:26:39.725Z,11.73
2022-09-01T05:27:39.627Z,11.69
2022-09-01T05:28:39.608Z,11.56
2022-09-01T05:29:39.598Z,11.61
2022-09-01T05:30:39.622Z,11.62
2022-09-01T05:31:39.628Z,11.76
2022-09-01T05:32:39.598Z,11.82
2022-09-01T05:33:39.558Z,11.89
2022-09-01T05:34:39.581Z,11.88
2022-09-01T05:35:39.551Z,12.03
2022-09-01T05:36:39.553Z,12.28
2022-09-01T05:37:39.529Z,12.62
2022-09-01T05:38:39.523Z,12.43
2022-09-01T05:39:39.540Z,11.91
2022-09-01T05:40:39.576Z,11.93
2022-09-01T05:41:39.503Z,11.87
2022-09-01T05:42:39.499Z,11.82
2022-09-01T05:43:39.507Z,11.80
2022-09-01T05:44:39.498Z,11.73
2022-09-01T05:45:56.537Z,11.79
2022-09-01T05:46:40.500Z,11.88
2022-09-01T05:47:39.442Z,12.04
2022-09-01T05:48:39.434Z,11.89
2022-09-01T05:49:39.444Z,11.93
2022-09-01T05:50:39.420Z,11.96
2022-09-01T05:51:50.971Z,12.15
2022-09-01T05:52:40.399Z,12.35
2022-09-01T05:53:39.395Z,12.32
2022-09-01T05:54:39.404Z,12.63
2022-09-01T05:55:39.398Z,12.59
2022-09-01T05:56:43.255Z,12.59
2022-09-01T05:57:39.359Z,12.62
2022-09-01T05:59:40.381Z,13.21
2022-09-01T06:00:39.350Z,13.96
2022-09-01T06:01:39.485Z,14.85
2022-09-01T06:02:39.520Z,14.93
2022-09-01T06:03:39.352Z,15.44
2022-09-01T06:04:39.311Z,16.08
2022-09-01T06:05:39.301Z,16.34
2022-09-01T06:06:54.997Z,15.87
2022-09-01T06:07:40.303Z,15.76
2022-09-01T06:08:39.553Z,15.72
2022-09-01T06:09:39.277Z,15.58
2022-09-01T06:10:39.257Z,15.80
2022-09-01T06:11:39.237Z,15.58
2022-09-01T06:12:39.270Z,15.36
2022-09-01T06:13:39.222Z,15.77
2022-09-01T06:14:39.218Z,16.13
2022-09-01T06:15:39.211Z,16.46
2022-09-01T06:16:39.240Z,16.36
2022-09-01T06:17:39.211Z,16.46
2022-09-01T06:18:39.240Z,15.91
2022-09-01T06:19:39.186Z,16.16
2022-09-01T06:20:39.177Z,17.12
2022-09-01T06:21:39.160Z,17.97
2022-09-01T06:22:39.776Z,17.86
2022-09-01T06:23:39.248Z,18.06
2022-09-01T06:24:39.142Z,18.58
2022-09-01T06:25:39.131Z,18.63
2022-09-01T06:26:39.155Z,18.17
2022-09-01T06:27:39.104Z,18.36
2022-09-01T06:28:39.140Z,18.11
2022-09-01T06:29:39.115Z,18.64
2022-09-01T06:30:39.082Z,17.78
2022-09-01T06:31:39.113Z,18.41
2022-09-01T06:32:39.063Z,18.06
2022-09-01T06:33:39.056Z,17.31
2022-09-01T06:34:39.084Z,17.17
2022-09-01T06:35:39.045Z,17.25
2022-09-01T06:36:39.029Z,17.30
2022-09-01T06:37:39.087Z,17.78
2022-09-01T06:38:39.019Z,18.36
2022-09-01T06:39:39.004Z,17.01
2022-09-01T06:40:39.080Z,16.98
2022-09-01T06:41:39.024Z,16.77
2022-09-01T06:42:38.977Z,16.97
2022-09-01T06:43:38.969Z,16.64
2022-09-01T06:44:41.131Z,16.43
2022-09-01T06:45:38.947Z,15.98
2022-09-01T06:46:39.018Z,16.10
2022-09-01T06:47:39.066Z,16.49
2022-09-01T06:48:39.004Z,16.61
2022-09-01T06:49:38.917Z,17.71
2022-09-01T06:51:39.927Z,19.27
2022-09-01T06:53:39.897Z,19.50
2022-09-01T06:54:38.886Z,19.35
2022-09-01T06:55:38.890Z,20.12
2022-09-01T06:56:42.806Z,19.39
2022-09-01T06:58:39.836Z,18.45
2022-09-01T06:59:38.873Z,18.39
2022-09-01T07:00:38.827Z,19.07
2022-09-01T07:01:39.226Z,19.86
2022-09-01T07:02:38.857Z,19.26
2022-09-01T07:03:38.815Z,18.64
2022-09-01T07:04:38.823Z,19.12
2022-09-01T07:08:05.204Z,19.87
2022-09-01T07:09:49.899Z,20.15
2022-09-01T07:11:19.506Z,20.11
2022-09-01T07:12:39.745Z,19.15
2022-09-01T07:13:38.859Z,19.44
2022-09-01T07:16:30.139Z,19.23
2022-09-01T07:16:41.869Z,18.48
2022-09-01T07:17:39.793Z,18.86
2022-09-01T07:18:38.686Z,18.74
2022-09-01T07:19:54.067Z,19.00
2022-09-01T07:21:36.358Z,19.93
2022-09-01T07:21:42.350Z,19.96
2022-09-01T07:23:03.616Z,19.77
2022-09-01T07:24:07.724Z,19.57
2022-09-01T07:24:39.634Z,19.17
2022-09-01T07:26:01.277Z,19.82
2022-09-01T07:26:46.831Z,19.64
2022-09-01T07:27:41.440Z,19.64
2022-09-01T07:28:38.600Z,20.04
2022-09-01T07:29:38.609Z,20.50
2022-09-01T07:30:38.582Z,20.17
2022-09-01T07:32:44.043Z,19.19
2022-09-01T07:33:44.149Z,20.11
2022-09-01T07:34:39.323Z,20.70
2022-09-01T07:35:39.191Z,20.63
2022-09-01T07:39:55.467Z,19.31
2022-09-01T07:42:31.769Z,20.55
2022-09-01T07:43:39.468Z,20.14
2022-09-01T07:44:38.505Z,20.71
2022-09-01T07:45:47.205Z,19.75
2022-09-01T07:46:39.528Z,20.04
2022-09-01T07:47:54.187Z,20.61
2022-09-01T07:50:11.431Z,20.77
2022-09-01T07:51:34.733Z,20.26
2022-09-01T07:51:39.568Z,20.12
2022-09-01T07:52:38.409Z,21.04
2022-09-01T07:53:38.394Z,20.92
2022-09-01T07:54:38.655Z,21.74
2022-09-01T07:55:38.405Z,22.53
2022-09-01T07:56:40.383Z,21.60
2022-09-01T07:57:38.901Z,20.82
2022-09-01T07:58:38.345Z,21.38
2022-09-01T07:59:38.340Z,21.10
2022-09-01T08:00:38.332Z,21.60
2022-09-01T08:01:38.373Z,21.66
2022-09-01T08:02:38.478Z,21.13
2022-09-01T08:03:38.560Z,22.18
2022-09-01T08:04:38.309Z,21.08
2022-09-01T08:05:38.333Z,20.04
2022-09-01T08:06:38.603Z,20.37
2022-09-01T08:07:51.647Z,20.61
2022-09-01T08:08:39.308Z,21.32
2022-09-01T08:09:43.713Z,20.82
2022-09-01T08:10:39.261Z,20.79
2022-09-01T08:12:02.937Z,21.71
2022-09-01T08:12:39.269Z,22.46
2022-09-01T08:13:41.740Z,21.93
2022-09-01T08:14:38.226Z,20.65
2022-09-01T08:15:41.242Z,20.77
2022-09-01T08:16:40.083Z,21.14
2022-09-01T08:17:54.700Z,20.19
2022-09-01T08:18:54.286Z,20.37
2022-09-01T08:19:39.169Z,20.89
2022-09-01T08:20:38.166Z,21.55
2022-09-01T08:21:38.331Z,21.48
2022-09-01T08:22:38.186Z,21.38
2022-09-01T08:23:38.166Z,20.44
2022-09-01T08:24:38.138Z,20.30
2022-09-01T08:25:38.122Z,20.18
2022-09-01T08:26:38.134Z,20.71
2022-09-01T08:27:38.107Z,20.53
2022-09-01T08:28:38.103Z,19.63
2022-09-01T08:29:38.142Z,20.29
2022-09-01T08:30:38.096Z,20.36
2022-09-01T08:31:38.121Z,20.33
2022-09-01T08:32:38.405Z,21.10
2022-09-01T08:33:38.055Z,22.03
2022-09-01T08:34:38.113Z,21.44
2022-09-01T08:35:38.048Z,20.97
2022-09-01T08:36:38.034Z,20.09
2022-09-01T08:37:38.018Z,20.44
2022-09-01T08:38:38.101Z,20.05
2022-09-01T08:39:38.001Z,20.09
2022-09-01T08:40:38.104Z,20.34
2022-09-01T08:41:38.001Z,20.63
2022-09-01T08:42:38.044Z,21.04
2022-09-01T08:43:38.088Z,20.75
2022-09-01T08:44:38.102Z,20.12
2022-09-01T08:45:37.957Z,19.60
2022-09-01T08:46:38.056Z,19.86
2022-09-01T08:47:55.947Z,20.36
2022-09-01T08:49:46.381Z,20.89
2022-09-01T08:50:38.934Z,21.35
2022-09-01T08:51:37.927Z,22.01
2022-09-01T08:52:37.898Z,22.21
2022-09-01T08:53:37.910Z,21.91
2022-09-01T08:54:37.882Z,20.80
2022-09-01T08:55:37.901Z,20.46
2022-09-01T08:56:37.860Z,20.74
2022-09-01T08:57:37.867Z,20.86
2022-09-01T08:58:37.931Z,20.83
2022-09-01T08:59:38.968Z,20.71
2022-09-01T09:00:37.840Z,20.93
2022-09-01T09:01:38.009Z,21.53
2022-09-01T09:02:37.957Z,21.98
2022-09-01T09:03:41.493Z,22.30
2022-09-01T09:04:37.798Z,22.19
2022-09-01T09:05:37.833Z,21.80
2022-09-01T09:06:37.812Z,22.00
2022-09-01T09:07:37.779Z,22.12
2022-09-01T09:08:37.788Z,22.15
2022-09-01T09:09:37.761Z,21.63
2022-09-01T09:10:37.750Z,21.05
2022-09-01T09:11:38.073Z,21.14
2022-09-01T09:12:48.989Z,21.80
2022-09-01T09:13:38.757Z,22.06
2022-09-01T09:14:37.756Z,21.90
2022-09-01T09:15:37.752Z,22.46
2022-09-01T09:16:37.706Z,22.37
2022-09-01T09:17:37.694Z,20.89
2022-09-01T09:18:39.959Z,20.83
2022-09-01T09:19:37.700Z,21.08
2022-09-01T09:20:38.386Z,21.45
2022-09-01T09:21:37.677Z,21.59
2022-09-01T09:22:37.665Z,21.75
2022-09-01T09:23:37.651Z,21.58
2022-09-01T09:24:39.743Z,21.37
2022-09-01T09:25:37.662Z,21.71
2022-09-01T09:26:44.918Z,21.63
2022-09-01T09:27:38.624Z,21.16
2022-09-01T09:28:37.610Z,21.03
2022-09-01T09:29:37.605Z,21.04
2022-09-01T09:30:38.556Z,20.79
2022-09-01T09:31:37.795Z,20.83
2022-09-01T09:33:08.933Z,21.11
2022-09-01T09:33:51.105Z,21.23
2022-09-01T09:34:38.575Z,21.75
2022-09-01T09:35:37.554Z,21.48
2022-09-01T09:36:37.583Z,20.82
2022-09-01T09:37:37.576Z,21.26
2022-09-01T09:38:37.555Z,21.26
2022-09-01T09:39:37.549Z,20.41
2022-09-01T09:41:06.696Z,21.10
2022-09-01T09:41:38.594Z,21.63
2022-09-01T09:42:37.533Z,21.74
2022-09-01T09:43:37.523Z,21.77
2022-09-01T09:44:37.495Z,22.07
2022-09-01T09:45:37.963Z,22.44
2022-09-01T09:46:37.492Z,22.38
2022-09-01T09:47:44.984Z,22.61
2022-09-01T09:48:39.388Z,22.19
2022-09-01T09:49:44.255Z,22.19
2022-09-01T09:50:38.570Z,22.21
2022-09-01T09:51:37.443Z,22.88
2022-09-01T09:52:38.044Z,23.10
2022-09-01T09:53:37.563Z,22.28
2022-09-01T09:54:37.628Z,22.21
2022-09-01T09:55:37.433Z,22.66
2022-09-01T09:56:37.599Z,22.53
2022-09-01T09:57:37.400Z,22.19
2022-09-01T09:58:37.632Z,22.62
2022-09-01T09:59:57.062Z,21.82
2022-09-01T10:00:40.702Z,21.60
2022-09-01T10:01:38.432Z,21.41
2022-09-01T10:02:38.371Z,21.48
2022-09-01T10:03:37.467Z,21.45
2022-09-01T10:04:37.489Z,21.73
2022-09-01T10:05:37.722Z,22.01
2022-09-01T10:06:37.379Z,21.38
2022-09-01T10:07:37.549Z,21.53
2022-09-01T10:08:38.014Z,22.07
2022-09-01T10:09:37.477Z,22.25
2022-09-01T10:10:37.438Z,22.56
2022-09-01T10:11:41.471Z,22.67
2022-09-01T10:12:37.465Z,23.04
2022-09-01T10:13:37.657Z,22.43
2022-09-01T10:14:52.478Z,22.55
2022-09-01T10:15:38.449Z,23.18
2022-09-01T10:16:37.437Z,22.96
2022-09-01T10:17:37.278Z,22.77
2022-09-01T10:18:37.551Z,23.08
2022-09-01T10:19:37.308Z,23.04
2022-09-01T10:20:37.306Z,22.21
2022-09-01T10:21:37.635Z,22.19
2022-09-01T10:22:37.329Z,22.22
2022-09-01T10:23:37.593Z,22.66
2022-09-01T10:24:38.934Z,22.73
2022-09-01T10:25:38.462Z,22.40
2022-09-01T10:26:37.494Z,22.59
2022-09-01T10:27:37.262Z,22.92
2022-09-01T10:28:37.254Z,23.01
2022-09-01T10:29:47.528Z,23.13
2022-09-01T10:30:38.198Z,23.07
2022-09-01T10:31:37.395Z,23.51
2022-09-01T10:32:42.815Z,23.31
2022-09-01T10:33:38.119Z,23.67
2022-09-01T10:34:37.144Z,23.52
2022-09-01T10:35:39.726Z,23.81
2022-09-01T10:36:37.783Z,23.81
2022-09-01T10:37:37.078Z,23.78
2022-09-01T10:38:37.080Z,23.81
2022-09-01T10:39:42.982Z,23.96
2022-09-01T10:40:43.187Z,23.66
2022-09-01T10:41:39.062Z,23.66
2022-09-01T10:42:37.030Z,23.49
2022-09-01T10:43:38.489Z,22.86
2022-09-01T10:44:37.016Z,22.83
2022-09-01T10:45:38.205Z,23.22
2022-09-01T10:46:39.302Z,22.93
2022-09-01T10:47:37.040Z,22.95
2022-09-01T10:48:48.863Z,23.01
2022-09-01T10:49:37.965Z,22.99
2022-09-01T10:50:36.961Z,23.22
2022-09-01T10:51:40.164Z,23.14
2022-09-01T10:52:37.982Z,22.95
2022-09-01T10:53:36.967Z,23.46
2022-09-01T10:54:38.527Z,23.88
2022-09-01T10:55:36.929Z,23.86
2022-09-01T10:56:37.029Z,23.48
2022-09-01T10:57:42.332Z,23.18
2022-09-01T10:59:43.575Z,22.18
2022-09-01T11:00:37.983Z,22.11
2022-09-01T11:01:47.846Z,22.23
2022-09-01T11:02:46.391Z,22.25
2022-09-01T11:03:42.143Z,22.51
2022-09-01T11:04:37.937Z,22.38
2022-09-01T11:05:36.867Z,22.06
2022-09-01T11:06:36.958Z,21.88
2022-09-01T11:08:00.035Z,22.09
2022-09-01T11:08:37.825Z,21.65
2022-09-01T11:09:36.819Z,21.90
2022-09-01T11:10:36.861Z,22.56
2022-09-01T11:11:36.808Z,22.96
2022-09-01T11:12:36.808Z,23.45
2022-09-01T11:13:36.785Z,23.69
2022-09-01T11:14:36.838Z,23.55
2022-09-01T11:15:36.835Z,23.55
2022-09-01T11:16:52.159Z,24.10
2022-09-01T11:17:37.845Z,23.82
2022-09-01T11:18:36.749Z,24.29
2022-09-01T11:19:36.737Z,24.31
2022-09-01T11:20:36.743Z,23.66
2022-09-01T11:21:38.249Z,23.48
2022-09-01T11:22:38.081Z,23.17
2022-09-01T11:23:36.797Z,22.92
2022-09-01T11:24:37.818Z,22.68
2022-09-01T11:25:40.218Z,22.67
2022-09-01T11:26:36.671Z,23.03
2022-09-01T11:27:36.666Z,23.29
2022-09-01T11:28:36.669Z,22.95
2022-09-01T11:29:36.709Z,22.81
2022-09-01T11:30:36.675Z,22.33
2022-09-01T11:31:36.710Z,22.48
2022-09-01T11:32:36.633Z,22.58
2022-09-01T11:33:36.634Z,22.64
2022-09-01T11:34:36.634Z,22.83
2022-09-01T11:35:36.605Z,22.44
2022-09-01T11:36:36.607Z,22.81
2022-09-01T11:37:36.587Z,23.11
2022-09-01T11:38:36.586Z,23.25
2022-09-01T11:39:36.579Z,23.34
2022-09-01T11:40:36.703Z,22.67
2022-09-01T11:41:36.572Z,22.91
2022-09-01T11:42:36.559Z,23.18
2022-09-01T11:43:36.546Z,23.13
2022-09-01T11:44:36.550Z,22.48
2022-09-01T11:45:36.614Z,22.77
2022-09-01T11:46:36.572Z,22.96
2022-09-01T11:47:36.521Z,22.98
2022-09-01T11:48:36.497Z,22.80
2022-09-01T11:49:36.496Z,23.15
2022-09-01T11:50:36.485Z,23.44
2022-09-01T11:51:36.487Z,23.67
2022-09-01T11:52:36.486Z,23.52
2022-09-01T11:53:36.455Z,23.22
2022-09-01T11:54:36.449Z,23.08
2022-09-01T11:55:36.443Z,22.41
2022-09-01T11:56:36.438Z,22.30
2022-09-01T11:57:36.452Z,22.16
2022-09-01T11:58:36.469Z,22.49
2022-09-01T11:59:36.417Z,22.49
2022-09-01T12:00:36.404Z,22.37
2022-09-01T12:03:02.603Z,22.48
2022-09-01T12:04:02.557Z,22.58
2022-09-01T12:05:02.525Z,22.59
2022-09-01T12:06:02.533Z,23.22
2022-09-01T12:07:02.511Z,23.55
2022-09-01T12:08:02.510Z,23.73
2022-09-01T12:09:02.512Z,23.18
2022-09-01T12:10:02.509Z,23.13
2022-09-01T12:11:02.499Z,23.13
2022-09-01T12:12:02.475Z,23.21
2022-09-01T12:13:02.464Z,23.26
2022-09-01T12:14:02.492Z,23.25
2022-09-01T12:15:06.264Z,22.96
2022-09-01T12:16:19.179Z,22.52
2022-09-01T12:17:03.480Z,22.41
2022-09-01T12:18:02.420Z,22.52
2022-09-01T12:19:02.446Z,22.53
2022-09-01T12:20:02.407Z,22.61
2022-09-01T12:21:02.428Z,22.49
2022-09-01T12:22:02.439Z,22.91
2022-09-01T12:23:02.413Z,22.91
2022-09-01T12:24:02.371Z,22.76
2022-09-01T12:25:02.471Z,22.62
2022-09-01T12:26:02.470Z,22.81
2022-09-01T12:27:02.366Z,23.31
2022-09-01T12:28:02.346Z,23.78
2022-09-01T12:29:02.337Z,24.06
2022-09-01T12:30:02.335Z,24.15
2022-09-01T12:31:02.339Z,23.82
2022-09-01T12:32:03.435Z,23.81
2022-09-01T12:34:03.446Z,23.04
2022-09-01T12:35:09.215Z,23.04
2022-09-01T12:36:03.298Z,23.18
2022-09-01T12:37:02.335Z,23.59
2022-09-01T12:38:03.056Z,23.94
2022-09-01T12:39:02.242Z,24.04
2022-09-01T12:40:02.278Z,23.91
2022-09-01T12:41:02.279Z,23.51
2022-09-01T12:42:02.247Z,23.26
2022-09-01T12:43:02.226Z,23.55
2022-09-01T12:44:02.240Z,23.76
2022-09-01T12:45:02.204Z,23.92
2022-09-01T12:46:02.955Z,24.21
2022-09-01T12:47:02.193Z,24.19
2022-09-01T12:48:02.194Z,24.36
2022-09-01T12:49:02.215Z,23.82
2022-09-01T12:50:03.524Z,23.52
2022-09-01T12:51:02.625Z,22.95
2022-09-01T12:52:02.199Z,22.89
2022-09-01T12:53:02.166Z,22.73
2022-09-01T12:54:04.726Z,22.62
2022-09-01T12:55:02.133Z,22.85
2022-09-01T12:56:02.120Z,23.22
2022-09-01T12:57:02.106Z,23.55
2022-09-01T12:58:02.132Z,24.16
2022-09-01T12:59:02.099Z,24.19
2022-09-01T13:00:02.077Z,24.06
2022-09-01T13:01:02.240Z,23.96
2022-09-01T13:02:02.169Z,23.78
2022-09-01T13:03:02.056Z,23.79
2022-09-01T13:04:02.049Z,23.54
2022-09-01T13:05:02.054Z,24.11
2022-09-01T13:06:02.045Z,23.91
2022-09-01T13:07:02.054Z,23.98
2022-09-01T13:08:02.019Z,24.11
2022-09-01T13:09:02.013Z,23.76
2022-09-01T13:10:02.002Z,23.22
2022-09-01T13:11:02.001Z,22.83
2022-09-01T13:12:06.525Z,22.80
2022-09-01T13:13:03.004Z,23.01
2022-09-01T13:14:01.988Z,23.11